Terminal Aerodrome Forecast
Issued by NWS

Home | Current Version | Previous Version | Text Only | Print | Product List | Glossary On
Versions: 1 2 3 4 5 6 7 8 9 10 11 12 13
000
FTUS45 KFGZ 061135
TAFSEZ
TAF
KSEZ 061135Z 0612/0712 VRB06KT P6SM SCT060 SCT100
     FM061900 23009KT P6SM SCT080 BKN110
      TEMPO 0619/0623 VRB10G25KT -TSRA BKN070CB
     FM070300 VRB06KT P6SM FEW070 SCT120 BKN200
     FM070600 VRB04KT P6SM SCT200=

USA.gov is the U.S. government's official web portal to all federal, state and local government web resources and services.